Ball Bluff, Minnesota
Current Conditions -  °F | °C
As of 11:47 AM on Friday 21 Nov 2014 (Local Time) from KHZX Reporting Station
Clear Clear  
Wind Chill: 14°   Ceiling: Unl
Heat Index: 27°   Visibility: 10mi
Dew Point: 18°   Wind: 17mph
Humidity: 69%   Direction: 190°S
Pressure: 29.97"   Gusts: 23mph
Location:  46.9333°N, 93.1876°W
Report Text: KHZX 211747Z AUTO 19015G20KT 10SM CLR M03/M08 A2997 RMK AO2
Loading
Personal Weather Stations






























Interactive Weather Map New forecast layout! Learn more

10-Day Weather Forecast

Advertisements
Track Severe Weather on mobile